createdAt,value
2017-11-10T19:44:07.693Z,7.99
2017-11-10T19:46:37.841Z,7.81
2017-11-10T19:49:09.106Z,7.83
2017-11-10T19:51:38.762Z,7.80
2017-11-10T19:54:07.442Z,7.90
2017-11-10T19:56:35.552Z,7.78
2017-11-10T19:59:10.210Z,7.83
2017-11-10T20:01:38.669Z,7.75
2017-11-10T20:04:08.087Z,7.74
2017-11-10T20:06:37.907Z,7.91
2017-11-10T20:09:06.112Z,7.81
2017-11-10T20:11:35.204Z,7.86
2017-11-10T20:14:04.708Z,7.79
2017-11-10T20:22:35.189Z,7.87
2017-11-10T20:25:03.222Z,7.81
2017-11-10T20:27:30.966Z,7.69
2017-11-10T20:30:00.572Z,7.57
2017-11-10T20:32:40.814Z,7.71
2017-11-10T20:35:08.838Z,7.65
2017-11-10T20:37:36.622Z,7.60
2017-11-10T20:40:05.318Z,7.61
2017-11-10T20:42:33.937Z,7.58
2017-11-10T20:45:01.915Z,7.54
2017-11-10T20:47:29.706Z,7.52
2017-11-10T20:49:57.713Z,7.60
2017-11-10T20:52:25.327Z,7.57
2017-11-10T20:54:54.837Z,7.53
2017-11-10T20:57:22.495Z,7.60
2017-11-10T20:59:51.106Z,7.63
2017-11-10T21:02:18.966Z,7.70
2017-11-10T21:04:46.883Z,7.69
2017-11-10T21:07:16.055Z,7.56
2017-11-10T21:09:45.558Z,7.65
2017-11-10T21:12:13.890Z,7.69
2017-11-10T21:14:43.679Z,7.75
2017-11-10T21:17:12.326Z,7.75
2017-11-10T21:19:40.495Z,7.73
2017-11-10T21:22:09.499Z,7.73
2017-11-10T21:24:37.810Z,7.83
2017-11-10T21:27:05.377Z,7.91
2017-11-10T21:29:36.957Z,7.93
2017-11-10T21:32:05.587Z,7.92
2017-11-10T21:34:34.413Z,7.74
2017-11-10T21:37:02.436Z,7.86
2017-11-10T21:39:30.368Z,7.93
2017-11-10T21:41:58.973Z,7.92
2017-11-10T21:44:29.419Z,7.97
2017-11-10T21:46:58.157Z,7.94
2017-11-10T21:49:26.685Z,7.94
2017-11-10T21:51:54.381Z,7.92
2017-11-10T21:54:21.972Z,7.83
2017-11-10T21:56:49.629Z,7.94
2017-11-10T21:59:19.971Z,7.92
2017-11-10T22:01:48.018Z,7.94
2017-11-10T22:04:18.358Z,7.89
2017-11-10T22:06:46.257Z,7.97
2017-11-10T22:09:15.422Z,8.05
2017-11-10T22:11:46.860Z,8.05
2017-11-10T22:14:14.917Z,7.98
2017-11-10T22:16:42.994Z,8.07
2017-11-10T22:19:12.371Z,8.14
2017-11-10T22:21:40.393Z,8.04
2017-11-10T22:24:10.008Z,7.87
2017-11-10T22:26:42.724Z,8.01
2017-11-10T22:29:11.041Z,7.95
2017-11-10T22:31:41.606Z,7.87
2017-11-10T22:34:09.417Z,8.07
2017-11-10T22:36:37.454Z,8.08
2017-11-10T22:39:11.995Z,7.98
2017-11-10T22:41:45.389Z,8.02
2017-11-10T22:44:14.767Z,7.92
2017-11-10T22:46:42.823Z,8.29
2017-11-10T22:49:11.517Z,8.21
2017-11-10T22:51:40.506Z,8.24
2017-11-10T22:54:12.810Z,8.15
2017-11-10T22:56:59.067Z,8.19
2017-11-10T22:59:28.069Z,8.18
2017-11-10T23:01:57.063Z,8.23
2017-11-10T23:04:28.181Z,8.24
2017-11-10T23:06:58.120Z,8.27
2017-11-10T23:09:26.054Z,8.28
2017-11-10T23:11:54.334Z,8.26
2017-11-10T23:14:27.995Z,8.10
2017-11-10T23:16:58.143Z,8.14
2017-11-10T23:19:37.563Z,8.08
2017-11-10T23:22:06.442Z,8.00
2017-11-10T23:24:36.064Z,8.01
2017-11-10T23:27:04.995Z,8.03
2017-11-10T23:29:32.970Z,8.14
2017-11-10T23:32:01.066Z,8.12
2017-11-10T23:34:29.170Z,7.97
2017-11-10T23:36:58.300Z,7.98
2017-11-10T23:39:29.458Z,7.77
2017-11-10T23:41:58.776Z,7.89
2017-11-10T23:44:31.404Z,7.98
2017-11-10T23:47:05.869Z,7.98
2017-11-10T23:49:35.530Z,7.97
2017-11-10T23:52:03.789Z,7.80
2017-11-10T23:54:31.578Z,8.00
2017-11-10T23:56:59.507Z,7.90
2017-11-10T23:59:28.376Z,7.92
